หน้าหลัก
METAR-TAF:

METAR-TAF

ท่าอากาศยาน :

Kristiansand, นอร์เวย์

ละติจูด: 58-12N, ลองจิจูด: 008-05E, ความสูง: 1 ม.

การสังเกตสภาพอากาศปัจจุบัน

รายงานได้ทำขึ้นเมื่อ 16 นาทีที่แล้ว ณ เวลา 21:50 UTC
ลม 2 นอตจากทิศทางซึ่งแปรผันได้
อุณหภูมิ -2°C
ความชื้น 93%
ความกดอากาศ 1017 hPa
ทัศนวิสัย 10 กม. หรือมากกว่า

METAR: ENCN 262150Z AUTO VRB02KT 9999 NCD M02/M03 Q1017 REFZRA

เวลา: 23:06 (22:06 UTC)

การพยากรณ์

รายงานได้ทำขึ้นเมื่อ 8 ชั่วโมงและ 6 นาทีที่แล้ว ณ เวลา 14:00 UTC
การพยากรณ์มีผลตั้งแต่วันที่ 26 ณ เวลา 15 UTC จนถึงวันที่ 26 ณ เวลา 21 UTC
ลม 3 นอตจากทิศทางซึ่งแปรผันได้
ทัศนวิสัย 10 กม. หรือมากกว่า
ไม่มีเมฆต่ำกว่า 1,500 ม. และไม่มีเมฆคิวมูโลนิมบัส
ชั่วคราว
ตั้งแต่วันที่ 26 ณ เวลา 15 UTC จนถึงวันที่ 26 ณ เวลา 17 UTC
ลม 10 นอตจากใต้

TAF: ENCN 261400Z 2615/2621 VRB03KT CAVOK TEMPO 2615/2617 18010KT

สังเกตการณ์สภาพอากาศและพยากรณ์อากาศของสนามบินมากกว่า 4000 แห่ง (รายงาน METAR และ TAF).

สถานีที่ดูได้จะแสดงไว้ด้วยจุดสีเหลืองและสีแดงบนแผนที่.

เลื่อนเมาส์ไปเหนือจุดเพื่อดูชื่อสถานี.

แล้วคลิกเพื่อดูสังเกตการณ์และการพยากรณ์สภาพอากาศ.

ในการเปลี่ยนแผนที่: คลิกที่ปุ่มสีเขียวที่มีกากบาทสีดำเพื่อซูมเข้า; ที่ปุ่มสีเขียวที่มีขีดเพื่อซูมออก; หรือที่ลูกศรสีเขียวเพื่อไปยังแผนที่ที่อยู่ติดกัน.


METAR-TAF: